sensor_id;sensor_type;location;lat;lon;timestamp;P1;durP1;ratioP1;P2;durP2;ratioP2
14903;SDS011;7543;53.148;8.234;2023-02-01T00:02:20;11.20;;;2.10;;
14903;SDS011;7543;53.148;8.234;2023-02-01T00:04:48;13.47;;;2.57;;
14903;SDS011;7543;53.148;8.234;2023-02-01T00:07:17;6.97;;;2.17;;
14903;SDS011;7543;53.148;8.234;2023-02-01T00:09:45;12.63;;;2.07;;
14903;SDS011;7543;53.148;8.234;2023-02-01T00:12:13;11.93;;;2.37;;
14903;SDS011;7543;53.148;8.234;2023-02-01T00:14:41;19.97;;;2.77;;
14903;SDS011;7543;53.148;8.234;2023-02-01T00:17:11;11.47;;;1.97;;
14903;SDS011;7543;53.148;8.234;2023-02-01T00:19:39;9.07;;;1.73;;
14903;SDS011;7543;53.148;8.234;2023-02-01T00:22:07;9.33;;;2.10;;
14903;SDS011;7543;53.148;8.234;2023-02-01T00:24:35;9.83;;;2.33;;
14903;SDS011;7543;53.148;8.234;2023-02-01T00:27:04;12.90;;;2.63;;
14903;SDS011;7543;53.148;8.234;2023-02-01T00:29:32;17.87;;;2.60;;
14903;SDS011;7543;53.148;8.234;2023-02-01T00:32:00;14.13;;;2.23;;
14903;SDS011;7543;53.148;8.234;2023-02-01T00:34:30;17.10;;;1.97;;
14903;SDS011;7543;53.148;8.234;2023-02-01T00:36:58;14.10;;;2.27;;
14903;SDS011;7543;53.148;8.234;2023-02-01T00:39:26;15.07;;;2.30;;
14903;SDS011;7543;53.148;8.234;2023-02-01T00:41:55;8.57;;;2.17;;
14903;SDS011;7543;53.148;8.234;2023-02-01T00:44:23;17.17;;;2.90;;
14903;SDS011;7543;53.148;8.234;2023-02-01T00:46:52;10.40;;;2.37;;
14903;SDS011;7543;53.148;8.234;2023-02-01T00:49:20;13.60;;;2.60;;
14903;SDS011;7543;53.148;8.234;2023-02-01T00:51:50;6.50;;;2.23;;
14903;SDS011;7543;53.148;8.234;2023-02-01T00:54:18;9.13;;;1.90;;
14903;SDS011;7543;53.148;8.234;2023-02-01T00:56:46;10.80;;;3.03;;
14903;SDS011;7543;53.148;8.234;2023-02-01T00:59:14;9.37;;;2.33;;
14903;SDS011;7543;53.148;8.234;2023-02-01T01:01:43;7.80;;;2.20;;
14903;SDS011;7543;53.148;8.234;2023-02-01T01:04:11;6.13;;;1.63;;
14903;SDS011;7543;53.148;8.234;2023-02-01T01:06:39;8.90;;;1.93;;
14903;SDS011;7543;53.148;8.234;2023-02-01T01:09:09;9.83;;;2.23;;
14903;SDS011;7543;53.148;8.234;2023-02-01T01:11:37;12.93;;;2.50;;
14903;SDS011;7543;53.148;8.234;2023-02-01T01:14:07;8.43;;;1.77;;
14903;SDS011;7543;53.148;8.234;2023-02-01T01:16:36;11.17;;;1.87;;
14903;SDS011;7543;53.148;8.234;2023-02-01T01:19:04;9.90;;;2.03;;
14903;SDS011;7543;53.148;8.234;2023-02-01T01:21:33;8.93;;;1.90;;
14903;SDS011;7543;53.148;8.234;2023-02-01T01:24:01;9.37;;;1.83;;
14903;SDS011;7543;53.148;8.234;2023-02-01T01:26:31;6.90;;;1.80;;
14903;SDS011;7543;53.148;8.234;2023-02-01T01:28:59;16.57;;;2.20;;
14903;SDS011;7543;53.148;8.234;2023-02-01T01:31:28;5.37;;;1.40;;
14903;SDS011;7543;53.148;8.234;2023-02-01T01:33:57;13.87;;;2.13;;
14903;SDS011;7543;53.148;8.234;2023-02-01T01:36:27;11.87;;;1.67;;
14903;SDS011;7543;53.148;8.234;2023-02-01T01:38:56;7.30;;;1.67;;
14903;SDS011;7543;53.148;8.234;2023-02-01T01:41:25;6.53;;;1.70;;
14903;SDS011;7543;53.148;8.234;2023-02-01T01:43:59;5.77;;;2.00;;
14903;SDS011;7543;53.148;8.234;2023-02-01T01:46:30;9.47;;;2.30;;
14903;SDS011;7543;53.148;8.234;2023-02-01T01:49:01;10.77;;;2.10;;
14903;SDS011;7543;53.148;8.234;2023-02-01T01:51:35;9.70;;;2.30;;
14903;SDS011;7543;53.148;8.234;2023-02-01T01:54:07;9.93;;;1.63;;
14903;SDS011;7543;53.148;8.234;2023-02-01T01:56:40;9.17;;;2.27;;
14903;SDS011;7543;53.148;8.234;2023-02-01T01:59:10;8.53;;;1.50;;
14903;SDS011;7543;53.148;8.234;2023-02-01T02:01:39;9.60;;;2.17;;
14903;SDS011;7543;53.148;8.234;2023-02-01T02:04:07;16.67;;;2.20;;
14903;SDS011;7543;53.148;8.234;2023-02-01T02:06:40;10.23;;;2.83;;
14903;SDS011;7543;53.148;8.234;2023-02-01T02:09:12;8.13;;;1.70;;
14903;SDS011;7543;53.148;8.234;2023-02-01T02:11:40;7.17;;;1.90;;
14903;SDS011;7543;53.148;8.234;2023-02-01T02:14:09;8.53;;;1.67;;
14903;SDS011;7543;53.148;8.234;2023-02-01T02:19:45;7.87;;;1.77;;
14903;SDS011;7543;53.148;8.234;2023-02-01T02:22:46;8.33;;;1.30;;
14903;SDS011;7543;53.148;8.234;2023-02-01T02:28:43;9.27;;;2.20;;
14903;SDS011;7543;53.148;8.234;2023-02-01T02:31:25;14.90;;;2.53;;
14903;SDS011;7543;53.148;8.234;2023-02-01T02:34:05;11.60;;;1.70;;
14903;SDS011;7543;53.148;8.234;2023-02-01T02:36:41;4.80;;;1.23;;
14903;SDS011;7543;53.148;8.234;2023-02-01T02:39:41;5.93;;;2.30;;
14903;SDS011;7543;53.148;8.234;2023-02-01T02:42:16;11.23;;;2.00;;
14903;SDS011;7543;53.148;8.234;2023-02-01T02:45:07;13.60;;;1.90;;
14903;SDS011;7543;53.148;8.234;2023-02-01T02:47:54;6.97;;;1.57;;
14903;SDS011;7543;53.148;8.234;2023-02-01T02:50:27;9.93;;;2.07;;
14903;SDS011;7543;53.148;8.234;2023-02-01T02:53:16;9.70;;;1.77;;
14903;SDS011;7543;53.148;8.234;2023-02-01T02:56:03;13.73;;;2.23;;
14903;SDS011;7543;53.148;8.234;2023-02-01T02:58:51;10.87;;;2.00;;
14903;SDS011;7543;53.148;8.234;2023-02-01T03:01:38;8.50;;;1.93;;
14903;SDS011;7543;53.148;8.234;2023-02-01T03:04:25;9.43;;;2.00;;
14903;SDS011;7543;53.148;8.234;2023-02-01T03:06:55;15.37;;;1.87;;
14903;SDS011;7543;53.148;8.234;2023-02-01T03:09:26;4.37;;;1.83;;
14903;SDS011;7543;53.148;8.234;2023-02-01T03:11:58;11.67;;;2.17;;
14903;SDS011;7543;53.148;8.234;2023-02-01T03:14:47;9.93;;;2.00;;
14903;SDS011;7543;53.148;8.234;2023-02-01T03:17:18;11.53;;;1.57;;
14903;SDS011;7543;53.148;8.234;2023-02-01T03:19:48;12.53;;;2.70;;
14903;SDS011;7543;53.148;8.234;2023-02-01T03:22:21;14.43;;;2.00;;
14903;SDS011;7543;53.148;8.234;2023-02-01T03:24:53;5.47;;;1.87;;
14903;SDS011;7543;53.148;8.234;2023-02-01T03:27:23;3.23;;;1.10;;
14903;SDS011;7543;53.148;8.234;2023-02-01T03:29:54;7.70;;;2.13;;
14903;SDS011;7543;53.148;8.234;2023-02-01T03:32:26;8.00;;;1.80;;
14903;SDS011;7543;53.148;8.234;2023-02-01T03:34:55;8.83;;;1.80;;
14903;SDS011;7543;53.148;8.234;2023-02-01T03:37:25;4.47;;;1.37;;
14903;SDS011;7543;53.148;8.234;2023-02-01T03:39:56;3.33;;;1.37;;
14903;SDS011;7543;53.148;8.234;2023-02-01T03:42:28;12.83;;;2.03;;
14903;SDS011;7543;53.148;8.234;2023-02-01T03:45:01;9.53;;;1.90;;
14903;SDS011;7543;53.148;8.234;2023-02-01T03:47:34;7.90;;;1.90;;
14903;SDS011;7543;53.148;8.234;2023-02-01T03:50:04;9.70;;;1.63;;
14903;SDS011;7543;53.148;8.234;2023-02-01T03:52:37;9.70;;;2.53;;
14903;SDS011;7543;53.148;8.234;2023-02-01T03:55:07;8.57;;;1.93;;
14903;SDS011;7543;53.148;8.234;2023-02-01T03:57:39;7.37;;;1.83;;
14903;SDS011;7543;53.148;8.234;2023-02-01T04:00:14;10.40;;;1.90;;
14903;SDS011;7543;53.148;8.234;2023-02-01T04:02:45;8.23;;;1.77;;
14903;SDS011;7543;53.148;8.234;2023-02-01T04:05:13;6.13;;;1.60;;
14903;SDS011;7543;53.148;8.234;2023-02-01T04:07:50;8.77;;;1.80;;
14903;SDS011;7543;53.148;8.234;2023-02-01T04:10:19;7.93;;;2.10;;
14903;SDS011;7543;53.148;8.234;2023-02-01T04:12:47;7.73;;;1.80;;
14903;SDS011;7543;53.148;8.234;2023-02-01T04:15:15;6.73;;;1.23;;
14903;SDS011;7543;53.148;8.234;2023-02-01T04:17:43;5.67;;;2.10;;
14903;SDS011;7543;53.148;8.234;2023-02-01T04:20:12;7.73;;;2.10;;
14903;SDS011;7543;53.148;8.234;2023-02-01T04:22:40;8.57;;;1.63;;
14903;SDS011;7543;53.148;8.234;2023-02-01T04:25:09;8.87;;;1.63;;
14903;SDS011;7543;53.148;8.234;2023-02-01T04:27:37;5.03;;;2.00;;
14903;SDS011;7543;53.148;8.234;2023-02-01T04:30:06;8.63;;;1.70;;
14903;SDS011;7543;53.148;8.234;2023-02-01T04:32:36;8.57;;;2.10;;
14903;SDS011;7543;53.148;8.234;2023-02-01T04:35:04;12.03;;;2.10;;
14903;SDS011;7543;53.148;8.234;2023-02-01T04:37:34;8.67;;;2.10;;
14903;SDS011;7543;53.148;8.234;2023-02-01T04:40:02;9.33;;;2.27;;
14903;SDS011;7543;53.148;8.234;2023-02-01T04:42:32;7.23;;;1.50;;
14903;SDS011;7543;53.148;8.234;2023-02-01T04:45:00;8.93;;;1.93;;
14903;SDS011;7543;53.148;8.234;2023-02-01T04:47:29;14.13;;;1.70;;
14903;SDS011;7543;53.148;8.234;2023-02-01T04:49:57;7.43;;;1.97;;
14903;SDS011;7543;53.148;8.234;2023-02-01T04:52:25;6.80;;;1.67;;
14903;SDS011;7543;53.148;8.234;2023-02-01T04:54:54;8.00;;;1.70;;
14903;SDS011;7543;53.148;8.234;2023-02-01T04:57:24;5.23;;;1.30;;
14903;SDS011;7543;53.148;8.234;2023-02-01T04:59:53;11.23;;;2.20;;
14903;SDS011;7543;53.148;8.234;2023-02-01T05:02:21;6.13;;;1.67;;
14903;SDS011;7543;53.148;8.234;2023-02-01T05:04:49;10.97;;;1.63;;
14903;SDS011;7543;53.148;8.234;2023-02-01T05:07:18;13.67;;;2.97;;
14903;SDS011;7543;53.148;8.234;2023-02-01T05:09:46;8.70;;;1.30;;
14903;SDS011;7543;53.148;8.234;2023-02-01T05:12:14;4.43;;;1.37;;
14903;SDS011;7543;53.148;8.234;2023-02-01T05:15:01;5.33;;;1.70;;
14903;SDS011;7543;53.148;8.234;2023-02-01T05:17:29;6.80;;;1.80;;
14903;SDS011;7543;53.148;8.234;2023-02-01T05:19:58;5.33;;;1.30;;
14903;SDS011;7543;53.148;8.234;2023-02-01T05:22:26;9.50;;;1.50;;
14903;SDS011;7543;53.148;8.234;2023-02-01T05:24:54;3.67;;;1.20;;
14903;SDS011;7543;53.148;8.234;2023-02-01T05:27:22;8.73;;;2.13;;
14903;SDS011;7543;53.148;8.234;2023-02-01T05:29:50;5.17;;;1.83;;
14903;SDS011;7543;53.148;8.234;2023-02-01T05:32:20;5.33;;;1.53;;
14903;SDS011;7543;53.148;8.234;2023-02-01T05:34:48;10.43;;;2.03;;
14903;SDS011;7543;53.148;8.234;2023-02-01T05:37:16;6.70;;;2.00;;
14903;SDS011;7543;53.148;8.234;2023-02-01T05:39:44;6.77;;;1.80;;
14903;SDS011;7543;53.148;8.234;2023-02-01T05:42:12;5.73;;;1.70;;
14903;SDS011;7543;53.148;8.234;2023-02-01T05:44:40;6.17;;;1.53;;
14903;SDS011;7543;53.148;8.234;2023-02-01T05:47:09;5.47;;;1.53;;
14903;SDS011;7543;53.148;8.234;2023-02-01T05:49:38;8.77;;;1.60;;
14903;SDS011;7543;53.148;8.234;2023-02-01T05:52:07;4.47;;;1.60;;
14903;SDS011;7543;53.148;8.234;2023-02-01T05:54:35;5.50;;;1.47;;
14903;SDS011;7543;53.148;8.234;2023-02-01T05:57:03;10.10;;;2.40;;
14903;SDS011;7543;53.148;8.234;2023-02-01T05:59:31;7.80;;;1.60;;
14903;SDS011;7543;53.148;8.234;2023-02-01T06:01:59;11.80;;;1.83;;
14903;SDS011;7543;53.148;8.234;2023-02-01T06:04:28;8.87;;;2.13;;
14903;SDS011;7543;53.148;8.234;2023-02-01T06:06:57;12.90;;;2.37;;
14903;SDS011;7543;53.148;8.234;2023-02-01T06:09:25;8.07;;;1.53;;
14903;SDS011;7543;53.148;8.234;2023-02-01T06:11:55;6.30;;;2.10;;
14903;SDS011;7543;53.148;8.234;2023-02-01T06:14:23;3.93;;;1.30;;
14903;SDS011;7543;53.148;8.234;2023-02-01T06:16:51;5.60;;;1.83;;
14903;SDS011;7543;53.148;8.234;2023-02-01T06:21:48;5.60;;;1.43;;
14903;SDS011;7543;53.148;8.234;2023-02-01T06:24:17;7.87;;;1.37;;
14903;SDS011;7543;53.148;8.234;2023-02-01T06:26:46;11.03;;;1.87;;
14903;SDS011;7543;53.148;8.234;2023-02-01T06:29:14;6.43;;;1.43;;
14903;SDS011;7543;53.148;8.234;2023-02-01T06:31:42;8.97;;;1.27;;
14903;SDS011;7543;53.148;8.234;2023-02-01T06:34:11;7.33;;;1.50;;
14903;SDS011;7543;53.148;8.234;2023-02-01T06:36:39;9.67;;;1.47;;
14903;SDS011;7543;53.148;8.234;2023-02-01T06:39:07;8.17;;;1.67;;
14903;SDS011;7543;53.148;8.234;2023-02-01T06:41:36;7.57;;;1.93;;
14903;SDS011;7543;53.148;8.234;2023-02-01T06:44:05;13.40;;;2.20;;
14903;SDS011;7543;53.148;8.234;2023-02-01T06:46:34;9.73;;;2.10;;
14903;SDS011;7543;53.148;8.234;2023-02-01T06:49:02;12.97;;;2.30;;
14903;SDS011;7543;53.148;8.234;2023-02-01T06:51:30;7.23;;;1.90;;
14903;SDS011;7543;53.148;8.234;2023-02-01T06:53:58;11.70;;;2.20;;
14903;SDS011;7543;53.148;8.234;2023-02-01T06:56:26;11.00;;;2.20;;
14903;SDS011;7543;53.148;8.234;2023-02-01T06:58:56;3.33;;;1.30;;
14903;SDS011;7543;53.148;8.234;2023-02-01T07:01:24;11.70;;;2.27;;
14903;SDS011;7543;53.148;8.234;2023-02-01T07:03:52;6.67;;;1.93;;
14903;SDS011;7543;53.148;8.234;2023-02-01T07:06:20;9.00;;;1.73;;
14903;SDS011;7543;53.148;8.234;2023-02-01T07:08:49;10.27;;;2.10;;
14903;SDS011;7543;53.148;8.234;2023-02-01T07:11:18;9.47;;;2.50;;
14903;SDS011;7543;53.148;8.234;2023-02-01T07:13:46;6.33;;;1.80;;
14903;SDS011;7543;53.148;8.234;2023-02-01T07:16:19;12.30;;;2.30;;
14903;SDS011;7543;53.148;8.234;2023-02-01T07:18:49;10.00;;;2.20;;
14903;SDS011;7543;53.148;8.234;2023-02-01T07:21:17;10.70;;;1.97;;
14903;SDS011;7543;53.148;8.234;2023-02-01T07:23:45;8.30;;;1.93;;
14903;SDS011;7543;53.148;8.234;2023-02-01T07:26:14;9.03;;;1.73;;
14903;SDS011;7543;53.148;8.234;2023-02-01T07:28:43;11.23;;;2.33;;
14903;SDS011;7543;53.148;8.234;2023-02-01T07:31:12;8.93;;;1.30;;
14903;SDS011;7543;53.148;8.234;2023-02-01T07:33:43;10.40;;;1.80;;
14903;SDS011;7543;53.148;8.234;2023-02-01T07:36:11;5.37;;;1.53;;
14903;SDS011;7543;53.148;8.234;2023-02-01T07:38:41;10.83;;;2.10;;
14903;SDS011;7543;53.148;8.234;2023-02-01T07:41:09;5.13;;;1.97;;
14903;SDS011;7543;53.148;8.234;2023-02-01T07:43:37;5.00;;;1.20;;
14903;SDS011;7543;53.148;8.234;2023-02-01T07:46:05;6.70;;;1.70;;
14903;SDS011;7543;53.148;8.234;2023-02-01T07:48:34;9.87;;;1.83;;
14903;SDS011;7543;53.148;8.234;2023-02-01T07:51:04;4.53;;;1.70;;
14903;SDS011;7543;53.148;8.234;2023-02-01T07:53:33;6.53;;;1.93;;
14903;SDS011;7543;53.148;8.234;2023-02-01T07:56:02;6.60;;;1.70;;
14903;SDS011;7543;53.148;8.234;2023-02-01T07:58:30;13.30;;;2.30;;
14903;SDS011;7543;53.148;8.234;2023-02-01T08:00:59;6.30;;;2.07;;
14903;SDS011;7543;53.148;8.234;2023-02-01T08:03:44;4.03;;;1.40;;
14903;SDS011;7543;53.148;8.234;2023-02-01T08:06:14;4.33;;;1.57;;
14903;SDS011;7543;53.148;8.234;2023-02-01T08:08:42;8.53;;;1.70;;
14903;SDS011;7543;53.148;8.234;2023-02-01T08:11:12;10.33;;;1.93;;
14903;SDS011;7543;53.148;8.234;2023-02-01T08:13:41;2.97;;;1.33;;
14903;SDS011;7543;53.148;8.234;2023-02-01T08:16:11;7.13;;;1.60;;
14903;SDS011;7543;53.148;8.234;2023-02-01T08:18:40;7.17;;;1.63;;
14903;SDS011;7543;53.148;8.234;2023-02-01T08:21:09;10.87;;;2.03;;
14903;SDS011;7543;53.148;8.234;2023-02-01T08:23:40;8.77;;;2.10;;
14903;SDS011;7543;53.148;8.234;2023-02-01T08:26:10;8.30;;;1.80;;
14903;SDS011;7543;53.148;8.234;2023-02-01T08:28:39;10.23;;;1.87;;
14903;SDS011;7543;53.148;8.234;2023-02-01T08:31:09;11.10;;;1.93;;
14903;SDS011;7543;53.148;8.234;2023-02-01T08:33:38;3.77;;;1.33;;
14903;SDS011;7543;53.148;8.234;2023-02-01T08:36:07;8.13;;;2.17;;
14903;SDS011;7543;53.148;8.234;2023-02-01T08:38:37;9.87;;;1.73;;
14903;SDS011;7543;53.148;8.234;2023-02-01T08:41:07;6.40;;;2.07;;
14903;SDS011;7543;53.148;8.234;2023-02-01T08:43:36;5.93;;;1.43;;
14903;SDS011;7543;53.148;8.234;2023-02-01T08:46:05;11.87;;;2.73;;
14903;SDS011;7543;53.148;8.234;2023-02-01T08:48:34;9.13;;;2.00;;
14903;SDS011;7543;53.148;8.234;2023-02-01T08:51:03;8.27;;;2.00;;
14903;SDS011;7543;53.148;8.234;2023-02-01T08:53:32;8.30;;;2.30;;
14903;SDS011;7543;53.148;8.234;2023-02-01T08:56:00;7.27;;;2.10;;
14903;SDS011;7543;53.148;8.234;2023-02-01T08:58:30;9.53;;;2.27;;
14903;SDS011;7543;53.148;8.234;2023-02-01T09:01:01;10.30;;;2.10;;
14903;SDS011;7543;53.148;8.234;2023-02-01T09:03:31;8.40;;;1.93;;
14903;SDS011;7543;53.148;8.234;2023-02-01T09:06:00;8.93;;;2.03;;
14903;SDS011;7543;53.148;8.234;2023-02-01T09:08:28;6.50;;;1.77;;
14903;SDS011;7543;53.148;8.234;2023-02-01T09:11:00;9.63;;;1.77;;
14903;SDS011;7543;53.148;8.234;2023-02-01T09:13:31;9.83;;;1.90;;
14903;SDS011;7543;53.148;8.234;2023-02-01T09:16:00;9.33;;;1.63;;
14903;SDS011;7543;53.148;8.234;2023-02-01T09:18:28;10.60;;;1.70;;
14903;SDS011;7543;53.148;8.234;2023-02-01T09:20:56;9.13;;;1.73;;
14903;SDS011;7543;53.148;8.234;2023-02-01T09:23:25;6.10;;;1.73;;
14903;SDS011;7543;53.148;8.234;2023-02-01T09:25:53;5.87;;;1.73;;
14903;SDS011;7543;53.148;8.234;2023-02-01T09:28:21;10.10;;;2.10;;
14903;SDS011;7543;53.148;8.234;2023-02-01T09:30:54;5.77;;;1.80;;
14903;SDS011;7543;53.148;8.234;2023-02-01T09:33:23;8.90;;;1.93;;
14903;SDS011;7543;53.148;8.234;2023-02-01T09:35:54;10.93;;;2.10;;
14903;SDS011;7543;53.148;8.234;2023-02-01T09:38:23;10.47;;;2.50;;
14903;SDS011;7543;53.148;8.234;2023-02-01T09:40:54;5.30;;;2.00;;
14903;SDS011;7543;53.148;8.234;2023-02-01T09:43:26;5.10;;;2.13;;
14903;SDS011;7543;53.148;8.234;2023-02-01T09:46:10;10.87;;;2.33;;
14903;SDS011;7543;53.148;8.234;2023-02-01T09:48:46;8.53;;;2.10;;
14903;SDS011;7543;53.148;8.234;2023-02-01T09:51:16;5.53;;;1.57;;
14903;SDS011;7543;53.148;8.234;2023-02-01T09:53:49;7.50;;;2.40;;
14903;SDS011;7543;53.148;8.234;2023-02-01T09:56:26;5.30;;;1.50;;
14903;SDS011;7543;53.148;8.234;2023-02-01T09:59:01;6.50;;;1.90;;
14903;SDS011;7543;53.148;8.234;2023-02-01T10:01:33;6.00;;;1.70;;
14903;SDS011;7543;53.148;8.234;2023-02-01T10:04:03;7.33;;;2.00;;
14903;SDS011;7543;53.148;8.234;2023-02-01T10:06:37;7.07;;;1.50;;
14903;SDS011;7543;53.148;8.234;2023-02-01T10:09:14;5.97;;;1.73;;
14903;SDS011;7543;53.148;8.234;2023-02-01T10:11:54;5.37;;;1.77;;
14903;SDS011;7543;53.148;8.234;2023-02-01T10:14:44;13.80;;;1.90;;
14903;SDS011;7543;53.148;8.234;2023-02-01T10:17:23;7.77;;;2.20;;
14903;SDS011;7543;53.148;8.234;2023-02-01T10:20:00;5.40;;;1.40;;
14903;SDS011;7543;53.148;8.234;2023-02-01T10:22:36;5.67;;;1.63;;
14903;SDS011;7543;53.148;8.234;2023-02-01T10:25:12;7.00;;;1.60;;
14903;SDS011;7543;53.148;8.234;2023-02-01T10:28:07;7.97;;;1.73;;
14903;SDS011;7543;53.148;8.234;2023-02-01T10:30:39;11.37;;;2.03;;
14903;SDS011;7543;53.148;8.234;2023-02-01T10:33:14;10.00;;;1.77;;
14903;SDS011;7543;53.148;8.234;2023-02-01T10:35:44;8.30;;;1.33;;
14903;SDS011;7543;53.148;8.234;2023-02-01T10:38:17;18.50;;;2.13;;
14903;SDS011;7543;53.148;8.234;2023-02-01T10:40:49;12.17;;;2.10;;
14903;SDS011;7543;53.148;8.234;2023-02-01T10:43:19;9.50;;;2.03;;
14903;SDS011;7543;53.148;8.234;2023-02-01T10:45:47;6.60;;;1.13;;
14903;SDS011;7543;53.148;8.234;2023-02-01T10:48:17;12.20;;;1.73;;
14903;SDS011;7543;53.148;8.234;2023-02-01T10:50:47;6.03;;;1.50;;
14903;SDS011;7543;53.148;8.234;2023-02-01T10:53:19;11.47;;;1.87;;
14903;SDS011;7543;53.148;8.234;2023-02-01T10:55:51;6.33;;;1.40;;
14903;SDS011;7543;53.148;8.234;2023-02-01T10:58:20;7.13;;;1.67;;
14903;SDS011;7543;53.148;8.234;2023-02-01T11:00:54;6.97;;;1.87;;
14903;SDS011;7543;53.148;8.234;2023-02-01T11:03:32;8.57;;;2.47;;
14903;SDS011;7543;53.148;8.234;2023-02-01T11:06:02;10.20;;;2.00;;
14903;SDS011;7543;53.148;8.234;2023-02-01T11:08:41;3.37;;;1.30;;
14903;SDS011;7543;53.148;8.234;2023-02-01T11:11:10;9.83;;;1.83;;
14903;SDS011;7543;53.148;8.234;2023-02-01T11:13:40;3.73;;;1.40;;
14903;SDS011;7543;53.148;8.234;2023-02-01T11:16:11;11.77;;;1.93;;
14903;SDS011;7543;53.148;8.234;2023-02-01T11:18:41;5.67;;;1.07;;
14903;SDS011;7543;53.148;8.234;2023-02-01T11:21:10;3.33;;;0.97;;
14903;SDS011;7543;53.148;8.234;2023-02-01T11:23:40;1.50;;;0.80;;
14903;SDS011;7543;53.148;8.234;2023-02-01T11:26:12;2.03;;;0.70;;
14903;SDS011;7543;53.148;8.234;2023-02-01T11:28:45;7.40;;;1.53;;
14903;SDS011;7543;53.148;8.234;2023-02-01T11:31:18;4.50;;;1.23;;
14903;SDS011;7543;53.148;8.234;2023-02-01T11:33:49;9.97;;;1.77;;
14903;SDS011;7543;53.148;8.234;2023-02-01T11:36:19;4.40;;;1.20;;
14903;SDS011;7543;53.148;8.234;2023-02-01T11:38:53;4.80;;;1.43;;
14903;SDS011;7543;53.148;8.234;2023-02-01T11:41:23;8.53;;;1.70;;
14903;SDS011;7543;53.148;8.234;2023-02-01T11:43:53;5.77;;;0.90;;
14903;SDS011;7543;53.148;8.234;2023-02-01T11:46:24;5.57;;;1.77;;
14903;SDS011;7543;53.148;8.234;2023-02-01T11:49:13;3.47;;;1.40;;
14903;SDS011;7543;53.148;8.234;2023-02-01T11:51:48;3.47;;;1.17;;
14903;SDS011;7543;53.148;8.234;2023-02-01T11:54:27;5.80;;;1.03;;
14903;SDS011;7543;53.148;8.234;2023-02-01T11:57:04;1.07;;;0.60;;
14903;SDS011;7543;53.148;8.234;2023-02-01T11:59:49;4.00;;;0.80;;
14903;SDS011;7543;53.148;8.234;2023-02-01T12:02:44;2.07;;;0.80;;
14903;SDS011;7543;53.148;8.234;2023-02-01T12:05:36;0.30;;;0.20;;
14903;SDS011;7543;53.148;8.234;2023-02-01T12:08:16;1.33;;;0.50;;
14903;SDS011;7543;53.148;8.234;2023-02-01T12:10:55;0.37;;;0.23;;
14903;SDS011;7543;53.148;8.234;2023-02-01T12:13:36;1.63;;;0.27;;
14903;SDS011;7543;53.148;8.234;2023-02-01T12:16:14;0.90;;;0.40;;
14903;SDS011;7543;53.148;8.234;2023-02-01T12:18:57;0.60;;;0.40;;
14903;SDS011;7543;53.148;8.234;2023-02-01T12:21:51;0.90;;;0.60;;
14903;SDS011;7543;53.148;8.234;2023-02-01T12:24:27;0.13;;;0.13;;
14903;SDS011;7543;53.148;8.234;2023-02-01T12:27:14;0.70;;;0.20;;
14903;SDS011;7543;53.148;8.234;2023-02-01T12:29:58;5.97;;;0.30;;
14903;SDS011;7543;53.148;8.234;2023-02-01T12:32:35;1.23;;;0.53;;
14903;SDS011;7543;53.148;8.234;2023-02-01T12:35:20;4.07;;;0.30;;
14903;SDS011;7543;53.148;8.234;2023-02-01T12:38:14;0.30;;;0.30;;
14903;SDS011;7543;53.148;8.234;2023-02-01T12:40:56;0.33;;;0.20;;
14903;SDS011;7543;53.148;8.234;2023-02-01T12:43:34;0.40;;;0.40;;
14903;SDS011;7543;53.148;8.234;2023-02-01T12:46:06;0.47;;;0.30;;
14903;SDS011;7543;53.148;8.234;2023-02-01T12:48:37;2.53;;;0.57;;
14903;SDS011;7543;53.148;8.234;2023-02-01T12:51:12;0.90;;;0.43;;
14903;SDS011;7543;53.148;8.234;2023-02-01T12:53:50;0.57;;;0.50;;
14903;SDS011;7543;53.148;8.234;2023-02-01T12:56:21;0.47;;;0.33;;
14903;SDS011;7543;53.148;8.234;2023-02-01T12:58:51;2.13;;;0.50;;
14903;SDS011;7543;53.148;8.234;2023-02-01T13:01:22;1.90;;;0.63;;
14903;SDS011;7543;53.148;8.234;2023-02-01T13:03:57;0.93;;;0.70;;
14903;SDS011;7543;53.148;8.234;2023-02-01T13:06:34;2.40;;;0.40;;
14903;SDS011;7543;53.148;8.234;2023-02-01T13:09:09;3.20;;;0.93;;
14903;SDS011;7543;53.148;8.234;2023-02-01T13:11:40;0.57;;;0.57;;
14903;SDS011;7543;53.148;8.234;2023-02-01T13:14:14;2.73;;;0.83;;
14903;SDS011;7543;53.148;8.234;2023-02-01T13:16:48;1.17;;;0.57;;
14903;SDS011;7543;53.148;8.234;2023-02-01T13:19:19;1.37;;;0.60;;
14903;SDS011;7543;53.148;8.234;2023-02-01T13:21:51;1.63;;;0.50;;
14903;SDS011;7543;53.148;8.234;2023-02-01T13:24:27;1.07;;;0.40;;
14903;SDS011;7543;53.148;8.234;2023-02-01T13:27:00;2.53;;;0.60;;
14903;SDS011;7543;53.148;8.234;2023-02-01T13:29:29;0.83;;;0.47;;
14903;SDS011;7543;53.148;8.234;2023-02-01T13:32:02;1.20;;;0.37;;
14903;SDS011;7543;53.148;8.234;2023-02-01T13:34:57;2.53;;;0.60;;
14903;SDS011;7543;53.148;8.234;2023-02-01T13:37:55;4.83;;;0.93;;
14903;SDS011;7543;53.148;8.234;2023-02-01T13:40:39;1.67;;;0.83;;
14903;SDS011;7543;53.148;8.234;2023-02-01T13:43:11;1.93;;;0.67;;
14903;SDS011;7543;53.148;8.234;2023-02-01T13:45:42;2.97;;;1.13;;
14903;SDS011;7543;53.148;8.234;2023-02-01T13:50:53;4.57;;;1.00;;
14903;SDS011;7543;53.148;8.234;2023-02-01T13:53:26;4.53;;;1.10;;
14903;SDS011;7543;53.148;8.234;2023-02-01T13:55:59;4.77;;;0.93;;
14903;SDS011;7543;53.148;8.234;2023-02-01T13:58:30;4.80;;;0.93;;
14903;SDS011;7543;53.148;8.234;2023-02-01T14:04:02;3.80;;;1.00;;
14903;SDS011;7543;53.148;8.234;2023-02-01T14:06:42;6.87;;;1.20;;
14903;SDS011;7543;53.148;8.234;2023-02-01T14:09:16;8.63;;;1.93;;
14903;SDS011;7543;53.148;8.234;2023-02-01T14:14:52;5.40;;;1.53;;
14903;SDS011;7543;53.148;8.234;2023-02-01T14:17:51;11.20;;;1.47;;
14903;SDS011;7543;53.148;8.234;2023-02-01T14:23:16;2.83;;;1.37;;
14903;SDS011;7543;53.148;8.234;2023-02-01T14:25:48;13.97;;;1.77;;
14903;SDS011;7543;53.148;8.234;2023-02-01T14:28:35;12.67;;;2.97;;
14903;SDS011;7543;53.148;8.234;2023-02-01T14:31:15;9.43;;;1.57;;
14903;SDS011;7543;53.148;8.234;2023-02-01T14:33:47;10.37;;;1.70;;
14903;SDS011;7543;53.148;8.234;2023-02-01T14:36:15;10.83;;;1.93;;
14903;SDS011;7543;53.148;8.234;2023-02-01T14:38:47;11.70;;;1.97;;
14903;SDS011;7543;53.148;8.234;2023-02-01T14:41:23;13.60;;;2.43;;
14903;SDS011;7543;53.148;8.234;2023-02-01T14:49:56;7.80;;;1.73;;
14903;SDS011;7543;53.148;8.234;2023-02-01T14:52:32;6.73;;;1.80;;
14903;SDS011;7543;53.148;8.234;2023-02-01T14:55:04;6.33;;;2.00;;
14903;SDS011;7543;53.148;8.234;2023-02-01T14:57:35;11.70;;;2.27;;
14903;SDS011;7543;53.148;8.234;2023-02-01T15:00:06;11.97;;;2.23;;
14903;SDS011;7543;53.148;8.234;2023-02-01T15:02:41;10.23;;;2.50;;
14903;SDS011;7543;53.148;8.234;2023-02-01T15:05:20;11.60;;;2.27;;
14903;SDS011;7543;53.148;8.234;2023-02-01T15:07:51;10.33;;;1.90;;
14903;SDS011;7543;53.148;8.234;2023-02-01T15:10:19;10.57;;;1.87;;
14903;SDS011;7543;53.148;8.234;2023-02-01T15:12:48;8.93;;;2.10;;
14903;SDS011;7543;53.148;8.234;2023-02-01T15:15:18;7.40;;;1.17;;
14903;SDS011;7543;53.148;8.234;2023-02-01T15:17:53;11.77;;;1.63;;
14903;SDS011;7543;53.148;8.234;2023-02-01T15:20:23;7.70;;;2.30;;
14903;SDS011;7543;53.148;8.234;2023-02-01T15:22:53;8.00;;;1.70;;
14903;SDS011;7543;53.148;8.234;2023-02-01T15:25:24;14.97;;;2.70;;
14903;SDS011;7543;53.148;8.234;2023-02-01T15:27:55;8.07;;;2.20;;
14903;SDS011;7543;53.148;8.234;2023-02-01T15:30:25;20.20;;;2.67;;
14903;SDS011;7543;53.148;8.234;2023-02-01T15:33:04;5.20;;;1.60;;
14903;SDS011;7543;53.148;8.234;2023-02-01T15:35:38;11.03;;;2.43;;
14903;SDS011;7543;53.148;8.234;2023-02-01T15:38:20;10.23;;;2.13;;
14903;SDS011;7543;53.148;8.234;2023-02-01T15:41:11;16.63;;;2.30;;
14903;SDS011;7543;53.148;8.234;2023-02-01T15:43:42;7.70;;;2.00;;
14903;SDS011;7543;53.148;8.234;2023-02-01T15:46:13;9.97;;;2.00;;
14903;SDS011;7543;53.148;8.234;2023-02-01T15:48:44;11.87;;;2.80;;
14903;SDS011;7543;53.148;8.234;2023-02-01T15:51:14;10.37;;;1.70;;
14903;SDS011;7543;53.148;8.234;2023-02-01T15:53:46;7.83;;;2.03;;
14903;SDS011;7543;53.148;8.234;2023-02-01T15:56:20;5.47;;;1.63;;